KYKM/YKM METAR and TAF weather

Enter ICAO airport designator
Station Type Date Time Source
KYKM METAR 2022/10/01 08:53 UTC NOAA

KYKM 010853Z AUTO 27006KT 10SM CLR 11/07 A3012 RMK AO2 SLP195 T01060072 58001


Station Type Date Time Source
KYKM Decoded METAR 2022/10/01 08:53 UTC NOAA

YAKIMA AIR TERMINAL, WA, United States (KYKM) 46-34N 120-32W 324M
Oct 01, 2022 - 04:53 AM EDT / 2022.10.01 0853 UTC
Wind: from the W (270 degrees) at 7 MPH (6 KT):0
Visibility: 10 mile(s):0
Sky conditions: clear
Temperature: 51.1 F (10.6 C)
Dew Point: 45.0 F (7.2 C)
Relative Humidity: 79%
Pressure (altimeter): 30.12 in. Hg (1019 hPa)
Pressure tendency: 0.00 inches (0.1 hPa) lower than three hours ago
ob: KYKM 010853Z AUTO 27006KT 10SM CLR 11/07 A3012 RMK AO2 SLP195 T01060072 58001
cycle: 9

Station Type Date Time Source
KYKM TAF 2022/10/01 06:33 UTC NOAA

TAF KYKM 010530Z 0106/0206 30007KT P6SM SKC
FM012000 03007KT P6SM SCT250
FM020400 VRB06KT P6SM SCT250

Example: see airport list